sensor_id;sensor_type;location;lat;lon;timestamp;temperature;humidity
65568;DHT22;52211;50.154;8.682;2022-08-19T00:00:41;24.80;49.70
65568;DHT22;52211;50.154;8.682;2022-08-19T00:03:14;24.90;49.70
65568;DHT22;52211;50.154;8.682;2022-08-19T00:05:41;24.90;49.80
65568;DHT22;52211;50.154;8.682;2022-08-19T00:08:10;24.80;49.60
65568;DHT22;52211;50.154;8.682;2022-08-19T00:10:37;24.90;49.70
65568;DHT22;52211;50.154;8.682;2022-08-19T00:13:09;24.80;49.60
65568;DHT22;52211;50.154;8.682;2022-08-19T00:15:38;24.90;49.70
65568;DHT22;52211;50.154;8.682;2022-08-19T00:18:05;24.90;49.80
65568;DHT22;52211;50.154;8.682;2022-08-19T00:20:35;24.90;49.80
65568;DHT22;52211;50.154;8.682;2022-08-19T00:23:02;24.90;49.90
65568;DHT22;52211;50.154;8.682;2022-08-19T00:25:29;24.90;49.90
65568;DHT22;52211;50.154;8.682;2022-08-19T00:27:59;24.90;49.90
65568;DHT22;52211;50.154;8.682;2022-08-19T00:30:26;24.90;49.90
65568;DHT22;52211;50.154;8.682;2022-08-19T00:32:56;24.90;49.90
65568;DHT22;52211;50.154;8.682;2022-08-19T00:35:28;24.90;49.90
65568;DHT22;52211;50.154;8.682;2022-08-19T00:37:55;24.80;50.10
65568;DHT22;52211;50.154;8.682;2022-08-19T00:40:22;24.80;49.90
65568;DHT22;52211;50.154;8.682;2022-08-19T00:42:52;24.80;50.00
65568;DHT22;52211;50.154;8.682;2022-08-19T00:45:28;24.90;50.10
65568;DHT22;52211;50.154;8.682;2022-08-19T00:48:03;24.80;50.10
65568;DHT22;52211;50.154;8.682;2022-08-19T00:50:41;24.80;49.90
65568;DHT22;52211;50.154;8.682;2022-08-19T00:53:25;24.80;50.00
65568;DHT22;52211;50.154;8.682;2022-08-19T00:55:56;24.80;50.20
65568;DHT22;52211;50.154;8.682;2022-08-19T00:58:29;24.80;50.10
65568;DHT22;52211;50.154;8.682;2022-08-19T01:01:04;24.80;50.10
65568;DHT22;52211;50.154;8.682;2022-08-19T01:03:33;24.80;50.10
65568;DHT22;52211;50.154;8.682;2022-08-19T01:06:20;24.80;50.20
65568;DHT22;52211;50.154;8.682;2022-08-19T01:08:47;24.80;50.10
65568;DHT22;52211;50.154;8.682;2022-08-19T01:11:16;24.80;50.20
65568;DHT22;52211;50.154;8.682;2022-08-19T01:13:44;24.80;50.20
65568;DHT22;52211;50.154;8.682;2022-08-19T01:16:17;24.80;50.20
65568;DHT22;52211;50.154;8.682;2022-08-19T01:18:46;24.70;50.20
65568;DHT22;52211;50.154;8.682;2022-08-19T01:21:22;24.70;50.20
65568;DHT22;52211;50.154;8.682;2022-08-19T01:23:57;24.70;50.40
65568;DHT22;52211;50.154;8.682;2022-08-19T01:26:25;24.70;50.30
65568;DHT22;52211;50.154;8.682;2022-08-19T01:28:59;24.70;50.30
65568;DHT22;52211;50.154;8.682;2022-08-19T01:31:30;24.70;50.30
65568;DHT22;52211;50.154;8.682;2022-08-19T01:33:58;24.70;50.30
65568;DHT22;52211;50.154;8.682;2022-08-19T01:36:31;24.70;50.40
65568;DHT22;52211;50.154;8.682;2022-08-19T01:39:12;24.70;50.40
65568;DHT22;52211;50.154;8.682;2022-08-19T01:41:41;24.70;50.50
65568;DHT22;52211;50.154;8.682;2022-08-19T01:44:12;24.70;50.50
65568;DHT22;52211;50.154;8.682;2022-08-19T01:46:47;24.70;50.50
65568;DHT22;52211;50.154;8.682;2022-08-19T01:49:21;24.70;50.50
65568;DHT22;52211;50.154;8.682;2022-08-19T01:51:53;24.70;50.60
65568;DHT22;52211;50.154;8.682;2022-08-19T01:54:23;24.70;50.60
65568;DHT22;52211;50.154;8.682;2022-08-19T01:57:01;24.70;50.50
65568;DHT22;52211;50.154;8.682;2022-08-19T01:59:31;24.60;50.70
65568;DHT22;52211;50.154;8.682;2022-08-19T02:02:05;24.70;50.70
65568;DHT22;52211;50.154;8.682;2022-08-19T02:04:36;24.60;50.70
65568;DHT22;52211;50.154;8.682;2022-08-19T02:07:07;24.60;50.60
65568;DHT22;52211;50.154;8.682;2022-08-19T02:09:35;24.60;50.60
65568;DHT22;52211;50.154;8.682;2022-08-19T02:12:04;24.60;50.70
65568;DHT22;52211;50.154;8.682;2022-08-19T02:14:35;24.60;50.70
65568;DHT22;52211;50.154;8.682;2022-08-19T02:17:05;24.60;50.70
65568;DHT22;52211;50.154;8.682;2022-08-19T02:19:35;24.60;50.70
65568;DHT22;52211;50.154;8.682;2022-08-19T02:22:06;24.60;50.70
65568;DHT22;52211;50.154;8.682;2022-08-19T02:24:35;24.60;50.70
65568;DHT22;52211;50.154;8.682;2022-08-19T02:27:05;24.50;50.80
65568;DHT22;52211;50.154;8.682;2022-08-19T02:29:34;24.60;51.00
65568;DHT22;52211;50.154;8.682;2022-08-19T02:32:04;24.60;51.30
65568;DHT22;52211;50.154;8.682;2022-08-19T02:34:30;24.50;50.90
65568;DHT22;52211;50.154;8.682;2022-08-19T02:37:00;24.50;51.00
65568;DHT22;52211;50.154;8.682;2022-08-19T02:39:29;24.50;51.00
65568;DHT22;52211;50.154;8.682;2022-08-19T02:41:56;24.50;51.10
65568;DHT22;52211;50.154;8.682;2022-08-19T02:44:29;24.50;51.10
65568;DHT22;52211;50.154;8.682;2022-08-19T02:46:57;24.50;51.10
65568;DHT22;52211;50.154;8.682;2022-08-19T02:49:26;24.50;51.20
65568;DHT22;52211;50.154;8.682;2022-08-19T02:51:56;24.50;51.20
65568;DHT22;52211;50.154;8.682;2022-08-19T02:54:22;24.50;51.20
65568;DHT22;52211;50.154;8.682;2022-08-19T02:56:52;24.50;51.20
65568;DHT22;52211;50.154;8.682;2022-08-19T02:59:21;24.50;51.20
65568;DHT22;52211;50.154;8.682;2022-08-19T03:01:54;24.50;51.30
65568;DHT22;52211;50.154;8.682;2022-08-19T03:04:23;24.50;51.20
65568;DHT22;52211;50.154;8.682;2022-08-19T03:06:52;24.50;51.20
65568;DHT22;52211;50.154;8.682;2022-08-19T03:09:23;24.40;51.30
65568;DHT22;52211;50.154;8.682;2022-08-19T03:11:54;24.40;51.40
65568;DHT22;52211;50.154;8.682;2022-08-19T03:14:21;24.40;51.50
65568;DHT22;52211;50.154;8.682;2022-08-19T03:16:51;24.30;51.50
65568;DHT22;52211;50.154;8.682;2022-08-19T03:19:21;24.30;51.50
65568;DHT22;52211;50.154;8.682;2022-08-19T03:21:51;24.30;51.50
65568;DHT22;52211;50.154;8.682;2022-08-19T03:24:19;24.30;51.40
65568;DHT22;52211;50.154;8.682;2022-08-19T03:26:52;24.30;51.60
65568;DHT22;52211;50.154;8.682;2022-08-19T03:29:27;24.20;51.80
65568;DHT22;52211;50.154;8.682;2022-08-19T03:32:03;24.20;51.80
65568;DHT22;52211;50.154;8.682;2022-08-19T03:34:34;24.20;51.90
65568;DHT22;52211;50.154;8.682;2022-08-19T03:37:06;24.20;51.90
65568;DHT22;52211;50.154;8.682;2022-08-19T03:39:39;24.20;51.90
65568;DHT22;52211;50.154;8.682;2022-08-19T03:42:08;24.20;51.90
65568;DHT22;52211;50.154;8.682;2022-08-19T03:44:58;24.10;51.90
65568;DHT22;52211;50.154;8.682;2022-08-19T03:47:25;24.10;51.90
65568;DHT22;52211;50.154;8.682;2022-08-19T03:49:54;24.10;52.00
65568;DHT22;52211;50.154;8.682;2022-08-19T03:52:21;24.00;52.10
65568;DHT22;52211;50.154;8.682;2022-08-19T03:54:52;24.10;52.10
65568;DHT22;52211;50.154;8.682;2022-08-19T03:57:21;24.00;52.20
65568;DHT22;52211;50.154;8.682;2022-08-19T04:00:00;24.00;52.20
65568;DHT22;52211;50.154;8.682;2022-08-19T04:02:40;24.00;52.30
65568;DHT22;52211;50.154;8.682;2022-08-19T04:05:30;24.00;52.20
65568;DHT22;52211;50.154;8.682;2022-08-19T04:07:56;24.00;52.30
65568;DHT22;52211;50.154;8.682;2022-08-19T04:10:30;24.00;52.30
65568;DHT22;52211;50.154;8.682;2022-08-19T04:12:56;23.90;52.30
65568;DHT22;52211;50.154;8.682;2022-08-19T04:15:25;23.90;52.30
65568;DHT22;52211;50.154;8.682;2022-08-19T04:17:55;23.90;52.50
65568;DHT22;52211;50.154;8.682;2022-08-19T04:20:24;23.90;52.30
65568;DHT22;52211;50.154;8.682;2022-08-19T04:22:51;23.80;52.50
65568;DHT22;52211;50.154;8.682;2022-08-19T04:25:18;23.90;52.50
65568;DHT22;52211;50.154;8.682;2022-08-19T04:27:45;23.80;52.50
65568;DHT22;52211;50.154;8.682;2022-08-19T04:30:13;23.80;52.50
65568;DHT22;52211;50.154;8.682;2022-08-19T04:32:41;23.80;52.50
65568;DHT22;52211;50.154;8.682;2022-08-19T04:35:10;23.80;52.50
65568;DHT22;52211;50.154;8.682;2022-08-19T04:37:48;23.70;52.50
65568;DHT22;52211;50.154;8.682;2022-08-19T04:40:17;23.70;52.50
65568;DHT22;52211;50.154;8.682;2022-08-19T04:43:02;23.70;52.60
65568;DHT22;52211;50.154;8.682;2022-08-19T04:45:31;23.60;52.60
65568;DHT22;52211;50.154;8.682;2022-08-19T04:48:12;23.60;52.70
65568;DHT22;52211;50.154;8.682;2022-08-19T04:50:55;23.60;52.90
65568;DHT22;52211;50.154;8.682;2022-08-19T04:53:32;23.60;52.80
65568;DHT22;52211;50.154;8.682;2022-08-19T04:56:12;23.60;53.10
65568;DHT22;52211;50.154;8.682;2022-08-19T04:58:44;23.50;53.00
65568;DHT22;52211;50.154;8.682;2022-08-19T05:01:14;23.60;53.10
65568;DHT22;52211;50.154;8.682;2022-08-19T05:03:44;23.60;53.20
65568;DHT22;52211;50.154;8.682;2022-08-19T05:06:13;23.50;53.10
65568;DHT22;52211;50.154;8.682;2022-08-19T05:08:43;23.50;53.30
65568;DHT22;52211;50.154;8.682;2022-08-19T05:11:19;23.50;53.20
65568;DHT22;52211;50.154;8.682;2022-08-19T05:13:55;23.50;53.30
65568;DHT22;52211;50.154;8.682;2022-08-19T05:16:24;23.50;53.30
65568;DHT22;52211;50.154;8.682;2022-08-19T05:18:54;23.60;53.40
65568;DHT22;52211;50.154;8.682;2022-08-19T05:21:41;23.50;53.40
65568;DHT22;52211;50.154;8.682;2022-08-19T05:24:28;23.60;53.40
65568;DHT22;52211;50.154;8.682;2022-08-19T05:27:01;23.60;53.40
65568;DHT22;52211;50.154;8.682;2022-08-19T05:29:29;23.70;53.40
65568;DHT22;52211;50.154;8.682;2022-08-19T05:32:04;23.70;53.50
65568;DHT22;52211;50.154;8.682;2022-08-19T05:34:35;23.70;53.60
65568;DHT22;52211;50.154;8.682;2022-08-19T05:37:03;23.70;53.60
65568;DHT22;52211;50.154;8.682;2022-08-19T05:39:34;23.80;53.70
65568;DHT22;52211;50.154;8.682;2022-08-19T05:42:07;23.80;53.70
65568;DHT22;52211;50.154;8.682;2022-08-19T05:44:39;23.80;53.60
65568;DHT22;52211;50.154;8.682;2022-08-19T05:47:16;23.80;53.60
65568;DHT22;52211;50.154;8.682;2022-08-19T05:49:47;23.90;53.60
65568;DHT22;52211;50.154;8.682;2022-08-19T05:52:17;23.90;53.70
65568;DHT22;52211;50.154;8.682;2022-08-19T05:54:47;24.00;53.70
65568;DHT22;52211;50.154;8.682;2022-08-19T05:57:19;24.00;53.70
65568;DHT22;52211;50.154;8.682;2022-08-19T05:59:49;24.00;53.70
65568;DHT22;52211;50.154;8.682;2022-08-19T06:02:28;24.10;53.70
65568;DHT22;52211;50.154;8.682;2022-08-19T06:04:57;24.10;53.80
65568;DHT22;52211;50.154;8.682;2022-08-19T06:07:24;24.20;53.70
65568;DHT22;52211;50.154;8.682;2022-08-19T06:09:51;24.20;53.70
65568;DHT22;52211;50.154;8.682;2022-08-19T06:12:28;24.20;53.60
65568;DHT22;52211;50.154;8.682;2022-08-19T06:15:12;24.20;53.50
65568;DHT22;52211;50.154;8.682;2022-08-19T06:17:40;24.30;53.70
65568;DHT22;52211;50.154;8.682;2022-08-19T06:20:13;24.30;53.60
65568;DHT22;52211;50.154;8.682;2022-08-19T06:22:44;24.40;53.60
65568;DHT22;52211;50.154;8.682;2022-08-19T06:25:16;24.40;53.60
65568;DHT22;52211;50.154;8.682;2022-08-19T06:27:46;24.40;53.50
65568;DHT22;52211;50.154;8.682;2022-08-19T06:30:33;24.50;53.60
65568;DHT22;52211;50.154;8.682;2022-08-19T06:32:59;24.50;53.50
65568;DHT22;52211;50.154;8.682;2022-08-19T06:35:29;24.50;53.50
65568;DHT22;52211;50.154;8.682;2022-08-19T06:37:56;24.60;53.50
65568;DHT22;52211;50.154;8.682;2022-08-19T06:40:28;24.60;53.50
65568;DHT22;52211;50.154;8.682;2022-08-19T06:43:00;24.60;53.50
65568;DHT22;52211;50.154;8.682;2022-08-19T06:45:33;24.70;53.40
65568;DHT22;52211;50.154;8.682;2022-08-19T06:48:05;24.70;53.40
65568;DHT22;52211;50.154;8.682;2022-08-19T06:50:38;24.70;53.30
65568;DHT22;52211;50.154;8.682;2022-08-19T06:53:06;24.70;53.40
65568;DHT22;52211;50.154;8.682;2022-08-19T06:55:35;24.80;53.30
65568;DHT22;52211;50.154;8.682;2022-08-19T06:58:04;24.80;53.30
65568;DHT22;52211;50.154;8.682;2022-08-19T07:00:32;24.80;53.20
65568;DHT22;52211;50.154;8.682;2022-08-19T07:03:03;24.80;53.20
65568;DHT22;52211;50.154;8.682;2022-08-19T07:05:39;24.90;53.20
65568;DHT22;52211;50.154;8.682;2022-08-19T07:08:11;24.90;53.20
65568;DHT22;52211;50.154;8.682;2022-08-19T07:10:45;24.90;53.20
65568;DHT22;52211;50.154;8.682;2022-08-19T07:13:12;24.90;53.20
65568;DHT22;52211;50.154;8.682;2022-08-19T07:15:44;25.00;53.20
65568;DHT22;52211;50.154;8.682;2022-08-19T07:18:12;25.00;53.10
65568;DHT22;52211;50.154;8.682;2022-08-19T07:20:47;25.00;53.10
65568;DHT22;52211;50.154;8.682;2022-08-19T07:23:14;25.10;53.10
65568;DHT22;52211;50.154;8.682;2022-08-19T07:25:43;25.10;53.00
65568;DHT22;52211;50.154;8.682;2022-08-19T07:28:18;25.10;53.00
65568;DHT22;52211;50.154;8.682;2022-08-19T07:30:50;25.10;53.00
65568;DHT22;52211;50.154;8.682;2022-08-19T07:33:21;25.20;53.00
65568;DHT22;52211;50.154;8.682;2022-08-19T07:35:47;25.20;52.90
65568;DHT22;52211;50.154;8.682;2022-08-19T07:38:17;25.30;53.00
65568;DHT22;52211;50.154;8.682;2022-08-19T07:40:44;25.30;52.90
65568;DHT22;52211;50.154;8.682;2022-08-19T07:43:12;25.30;52.80
65568;DHT22;52211;50.154;8.682;2022-08-19T07:45:44;25.40;52.70
65568;DHT22;52211;50.154;8.682;2022-08-19T07:48:11;25.40;52.70
65568;DHT22;52211;50.154;8.682;2022-08-19T07:50:38;25.50;52.70
65568;DHT22;52211;50.154;8.682;2022-08-19T07:53:07;25.60;52.60
65568;DHT22;52211;50.154;8.682;2022-08-19T07:55:37;25.60;53.10
65568;DHT22;52211;50.154;8.682;2022-08-19T07:58:14;25.70;52.40
65568;DHT22;52211;50.154;8.682;2022-08-19T08:00:45;25.80;52.30
65568;DHT22;52211;50.154;8.682;2022-08-19T08:03:17;25.90;52.20
65568;DHT22;52211;50.154;8.682;2022-08-19T08:05:45;25.90;52.10
65568;DHT22;52211;50.154;8.682;2022-08-19T08:08:33;26.00;52.00
65568;DHT22;52211;50.154;8.682;2022-08-19T08:11:22;26.10;51.90
65568;DHT22;52211;50.154;8.682;2022-08-19T08:13:49;26.20;51.60
65568;DHT22;52211;50.154;8.682;2022-08-19T08:16:30;26.20;51.60
65568;DHT22;52211;50.154;8.682;2022-08-19T08:19:07;26.30;51.70
65568;DHT22;52211;50.154;8.682;2022-08-19T08:21:51;26.40;51.70
65568;DHT22;52211;50.154;8.682;2022-08-19T08:24:21;26.50;51.70
65568;DHT22;52211;50.154;8.682;2022-08-19T08:26:57;26.60;51.50
65568;DHT22;52211;50.154;8.682;2022-08-19T08:29:36;26.70;51.40
65568;DHT22;52211;50.154;8.682;2022-08-19T08:32:08;26.80;51.30
65568;DHT22;52211;50.154;8.682;2022-08-19T08:34:42;26.90;51.10
65568;DHT22;52211;50.154;8.682;2022-08-19T08:37:17;27.00;51.00
65568;DHT22;52211;50.154;8.682;2022-08-19T08:39:44;27.10;51.50
65568;DHT22;52211;50.154;8.682;2022-08-19T08:42:27;27.20;50.70
65568;DHT22;52211;50.154;8.682;2022-08-19T08:45:13;27.30;50.20
65568;DHT22;52211;50.154;8.682;2022-08-19T08:47:47;27.30;50.10
65568;DHT22;52211;50.154;8.682;2022-08-19T08:50:22;27.50;50.10
65568;DHT22;52211;50.154;8.682;2022-08-19T08:52:56;27.50;50.00
65568;DHT22;52211;50.154;8.682;2022-08-19T08:55:29;27.60;49.90
65568;DHT22;52211;50.154;8.682;2022-08-19T08:58:13;27.70;49.70
65568;DHT22;52211;50.154;8.682;2022-08-19T09:00:48;27.80;49.40
65568;DHT22;52211;50.154;8.682;2022-08-19T09:03:24;27.90;49.50
65568;DHT22;52211;50.154;8.682;2022-08-19T09:06:04;28.00;49.40
65568;DHT22;52211;50.154;8.682;2022-08-19T09:17:21;28.40;48.90
65568;DHT22;52211;50.154;8.682;2022-08-19T09:19:55;28.50;48.60
65568;DHT22;52211;50.154;8.682;2022-08-19T09:22:28;28.60;48.60
65568;DHT22;52211;50.154;8.682;2022-08-19T09:24:55;28.60;48.40
65568;DHT22;52211;50.154;8.682;2022-08-19T09:27:26;28.60;48.00
65568;DHT22;52211;50.154;8.682;2022-08-19T09:30:14;28.70;47.80
65568;DHT22;52211;50.154;8.682;2022-08-19T09:32:54;28.60;47.50
65568;DHT22;52211;50.154;8.682;2022-08-19T09:35:26;28.60;47.70
65568;DHT22;52211;50.154;8.682;2022-08-19T09:37:57;28.60;47.90
65568;DHT22;52211;50.154;8.682;2022-08-19T09:40:31;28.60;47.90
65568;DHT22;52211;50.154;8.682;2022-08-19T09:43:03;28.60;47.80
65568;DHT22;52211;50.154;8.682;2022-08-19T09:45:38;28.60;47.90
65568;DHT22;52211;50.154;8.682;2022-08-19T09:48:05;28.70;47.90
65568;DHT22;52211;50.154;8.682;2022-08-19T09:50:37;28.80;48.00
65568;DHT22;52211;50.154;8.682;2022-08-19T09:53:18;28.90;47.90
65568;DHT22;52211;50.154;8.682;2022-08-19T09:55:45;29.00;47.60
65568;DHT22;52211;50.154;8.682;2022-08-19T09:58:16;29.00;47.50
65568;DHT22;52211;50.154;8.682;2022-08-19T10:00:52;29.10;47.10
65568;DHT22;52211;50.154;8.682;2022-08-19T10:03:20;29.10;47.10
65568;DHT22;52211;50.154;8.682;2022-08-19T10:06:05;29.20;47.10
65568;DHT22;52211;50.154;8.682;2022-08-19T10:08:42;29.20;46.80
65568;DHT22;52211;50.154;8.682;2022-08-19T10:11:17;29.30;46.90
65568;DHT22;52211;50.154;8.682;2022-08-19T10:14:05;29.30;46.90
65568;DHT22;52211;50.154;8.682;2022-08-19T10:16:33;29.30;46.70
65568;DHT22;52211;50.154;8.682;2022-08-19T10:19:08;29.30;46.50
65568;DHT22;52211;50.154;8.682;2022-08-19T10:21:36;29.30;46.40
65568;DHT22;52211;50.154;8.682;2022-08-19T10:24:08;29.30;46.40
65568;DHT22;52211;50.154;8.682;2022-08-19T10:26:38;29.40;46.40
65568;DHT22;52211;50.154;8.682;2022-08-19T10:29:10;29.50;46.40
65568;DHT22;52211;50.154;8.682;2022-08-19T10:31:38;29.50;46.20
65568;DHT22;52211;50.154;8.682;2022-08-19T10:34:28;29.70;45.60
65568;DHT22;52211;50.154;8.682;2022-08-19T10:36:56;29.70;45.70
65568;DHT22;52211;50.154;8.682;2022-08-19T10:39:31;29.80;45.30
65568;DHT22;52211;50.154;8.682;2022-08-19T10:42:09;29.80;45.40
65568;DHT22;52211;50.154;8.682;2022-08-19T10:44:41;29.90;45.60
65568;DHT22;52211;50.154;8.682;2022-08-19T10:47:08;30.00;45.60
65568;DHT22;52211;50.154;8.682;2022-08-19T10:49:53;30.10;45.50
65568;DHT22;52211;50.154;8.682;2022-08-19T10:52:41;30.20;45.40
65568;DHT22;52211;50.154;8.682;2022-08-19T10:55:18;30.40;45.30
65568;DHT22;52211;50.154;8.682;2022-08-19T10:58:16;30.50;45.40
65568;DHT22;52211;50.154;8.682;2022-08-19T11:00:56;30.70;45.20
65568;DHT22;52211;50.154;8.682;2022-08-19T11:03:27;30.90;44.70
65568;DHT22;52211;50.154;8.682;2022-08-19T11:06:04;31.00;44.90
65568;DHT22;52211;50.154;8.682;2022-08-19T11:08:35;31.10;44.20
65568;DHT22;52211;50.154;8.682;2022-08-19T11:11:07;31.20;44.20
65568;DHT22;52211;50.154;8.682;2022-08-19T11:13:39;31.20;43.70
65568;DHT22;52211;50.154;8.682;2022-08-19T11:16:10;31.20;43.50
65568;DHT22;52211;50.154;8.682;2022-08-19T11:18:43;31.20;43.30
65568;DHT22;52211;50.154;8.682;2022-08-19T11:23:51;31.30;43.50
65568;DHT22;52211;50.154;8.682;2022-08-19T11:26:21;31.40;43.40
65568;DHT22;52211;50.154;8.682;2022-08-19T11:28:50;31.60;43.70
65568;DHT22;52211;50.154;8.682;2022-08-19T11:31:24;31.80;43.50
65568;DHT22;52211;50.154;8.682;2022-08-19T11:33:59;32.00;43.20
65568;DHT22;52211;50.154;8.682;2022-08-19T11:36:31;32.20;42.30
65568;DHT22;52211;50.154;8.682;2022-08-19T11:39:01;32.30;42.30
65568;DHT22;52211;50.154;8.682;2022-08-19T11:41:29;32.40;42.00
65568;DHT22;52211;50.154;8.682;2022-08-19T11:43:59;32.50;42.00
65568;DHT22;52211;50.154;8.682;2022-08-19T11:46:29;32.70;42.10
65568;DHT22;52211;50.154;8.682;2022-08-19T11:49:00;32.80;41.50
65568;DHT22;52211;50.154;8.682;2022-08-19T11:51:29;33.00;41.50
65568;DHT22;52211;50.154;8.682;2022-08-19T11:53:58;33.20;41.30
65568;DHT22;52211;50.154;8.682;2022-08-19T11:56:28;33.30;40.90
65568;DHT22;52211;50.154;8.682;2022-08-19T11:58:55;33.40;40.60
65568;DHT22;52211;50.154;8.682;2022-08-19T12:01:25;33.40;40.20
65568;DHT22;52211;50.154;8.682;2022-08-19T12:03:54;33.50;40.00
65568;DHT22;52211;50.154;8.682;2022-08-19T12:06:28;33.50;40.40
65568;DHT22;52211;50.154;8.682;2022-08-19T12:09:02;33.50;39.50
65568;DHT22;52211;50.154;8.682;2022-08-19T12:11:32;33.60;39.30
65568;DHT22;52211;50.154;8.682;2022-08-19T12:14:00;33.70;39.40
65568;DHT22;52211;50.154;8.682;2022-08-19T12:16:30;33.80;39.10
65568;DHT22;52211;50.154;8.682;2022-08-19T12:19:00;34.00;38.80
65568;DHT22;52211;50.154;8.682;2022-08-19T12:21:33;34.10;38.60
65568;DHT22;52211;50.154;8.682;2022-08-19T12:24:04;34.10;38.40
65568;DHT22;52211;50.154;8.682;2022-08-19T12:26:34;34.00;38.10
65568;DHT22;52211;50.154;8.682;2022-08-19T12:29:21;34.00;38.40
65568;DHT22;52211;50.154;8.682;2022-08-19T12:31:57;34.00;38.30
65568;DHT22;52211;50.154;8.682;2022-08-19T12:34:31;34.10;38.10
65568;DHT22;52211;50.154;8.682;2022-08-19T12:37:04;34.30;37.40
65568;DHT22;52211;50.154;8.682;2022-08-19T12:39:39;34.40;37.10
65568;DHT22;52211;50.154;8.682;2022-08-19T12:42:09;34.60;37.50
65568;DHT22;52211;50.154;8.682;2022-08-19T12:44:39;34.60;37.20
65568;DHT22;52211;50.154;8.682;2022-08-19T12:47:11;34.70;37.30
65568;DHT22;52211;50.154;8.682;2022-08-19T12:49:41;34.80;37.30
65568;DHT22;52211;50.154;8.682;2022-08-19T12:52:24;35.10;37.00
65568;DHT22;52211;50.154;8.682;2022-08-19T12:54:55;35.30;36.70
65568;DHT22;52211;50.154;8.682;2022-08-19T12:57:27;35.60;36.60
65568;DHT22;52211;50.154;8.682;2022-08-19T13:00:11;35.70;36.20
65568;DHT22;52211;50.154;8.682;2022-08-19T13:02:43;35.70;35.30
65568;DHT22;52211;50.154;8.682;2022-08-19T13:05:19;35.70;35.00
65568;DHT22;52211;50.154;8.682;2022-08-19T13:07:51;35.50;34.40
65568;DHT22;52211;50.154;8.682;2022-08-19T13:10:32;35.20;34.70
65568;DHT22;52211;50.154;8.682;2022-08-19T13:13:06;35.00;34.60
65568;DHT22;52211;50.154;8.682;2022-08-19T13:15:41;34.70;34.20
65568;DHT22;52211;50.154;8.682;2022-08-19T13:18:12;34.40;34.50
65568;DHT22;52211;50.154;8.682;2022-08-19T13:20:43;34.20;34.80
65568;DHT22;52211;50.154;8.682;2022-08-19T13:23:18;34.20;34.90
65568;DHT22;52211;50.154;8.682;2022-08-19T13:25:55;34.20;34.80
65568;DHT22;52211;50.154;8.682;2022-08-19T13:28:24;34.30;34.50
65568;DHT22;52211;50.154;8.682;2022-08-19T13:30:54;34.60;35.00
65568;DHT22;52211;50.154;8.682;2022-08-19T13:33:39;34.80;34.20
65568;DHT22;52211;50.154;8.682;2022-08-19T13:36:07;34.80;34.10
65568;DHT22;52211;50.154;8.682;2022-08-19T13:38:38;34.80;33.90
65568;DHT22;52211;50.154;8.682;2022-08-19T13:41:07;34.80;33.80
65568;DHT22;52211;50.154;8.682;2022-08-19T13:43:40;34.70;33.60
65568;DHT22;52211;50.154;8.682;2022-08-19T13:46:10;34.60;33.80
65568;DHT22;52211;50.154;8.682;2022-08-19T13:48:40;34.50;33.80
65568;DHT22;52211;50.154;8.682;2022-08-19T13:51:10;34.40;33.90
65568;DHT22;52211;50.154;8.682;2022-08-19T13:53:45;34.30;33.80
65568;DHT22;52211;50.154;8.682;2022-08-19T13:56:18;34.20;33.70
65568;DHT22;52211;50.154;8.682;2022-08-19T13:58:52;34.00;33.80
65568;DHT22;52211;50.154;8.682;2022-08-19T14:01:24;34.00;33.80
65568;DHT22;52211;50.154;8.682;2022-08-19T14:03:51;33.80;33.60
65568;DHT22;52211;50.154;8.682;2022-08-19T14:06:20;33.70;33.90
65568;DHT22;52211;50.154;8.682;2022-08-19T14:08:51;33.60;33.90
65568;DHT22;52211;50.154;8.682;2022-08-19T14:11:19;33.60;33.80
65568;DHT22;52211;50.154;8.682;2022-08-19T14:13:46;33.50;33.80
65568;DHT22;52211;50.154;8.682;2022-08-19T14:16:13;33.40;33.70
65568;DHT22;52211;50.154;8.682;2022-08-19T14:18:43;33.30;33.70
65568;DHT22;52211;50.154;8.682;2022-08-19T14:21:19;33.20;33.70
65568;DHT22;52211;50.154;8.682;2022-08-19T14:23:52;33.30;33.80
65568;DHT22;52211;50.154;8.682;2022-08-19T14:26:22;33.30;33.80
65568;DHT22;52211;50.154;8.682;2022-08-19T14:28:53;33.30;33.80
65568;DHT22;52211;50.154;8.682;2022-08-19T14:31:23;33.30;33.70
65568;DHT22;52211;50.154;8.682;2022-08-19T14:33:56;33.30;33.70
65568;DHT22;52211;50.154;8.682;2022-08-19T14:36:23;33.20;33.60
65568;DHT22;52211;50.154;8.682;2022-08-19T14:38:50;33.20;33.60
65568;DHT22;52211;50.154;8.682;2022-08-19T14:41:21;33.20;33.60
65568;DHT22;52211;50.154;8.682;2022-08-19T14:43:51;33.10;33.50
65568;DHT22;52211;50.154;8.682;2022-08-19T14:46:25;33.00;33.50
65568;DHT22;52211;50.154;8.682;2022-08-19T14:48:57;32.90;33.40
65568;DHT22;52211;50.154;8.682;2022-08-19T14:51:25;32.90;33.70
65568;DHT22;52211;50.154;8.682;2022-08-19T14:53:55;33.00;34.80
65568;DHT22;52211;50.154;8.682;2022-08-19T14:56:28;33.20;34.20
65568;DHT22;52211;50.154;8.682;2022-08-19T14:58:56;33.50;34.10
65568;DHT22;52211;50.154;8.682;2022-08-19T15:01:27;34.00;34.20
65568;DHT22;52211;50.154;8.682;2022-08-19T15:04:00;34.40;33.80
65568;DHT22;52211;50.154;8.682;2022-08-19T15:06:29;34.80;33.40
65568;DHT22;52211;50.154;8.682;2022-08-19T15:08:56;35.10;33.10
65568;DHT22;52211;50.154;8.682;2022-08-19T15:11:32;35.40;32.60
65568;DHT22;52211;50.154;8.682;2022-08-19T15:14:01;35.70;32.40
65568;DHT22;52211;50.154;8.682;2022-08-19T15:16:31;35.90;31.60
65568;DHT22;52211;50.154;8.682;2022-08-19T15:19:01;36.10;31.30
65568;DHT22;52211;50.154;8.682;2022-08-19T15:21:28;36.20;31.30
65568;DHT22;52211;50.154;8.682;2022-08-19T15:23:57;36.20;31.00
65568;DHT22;52211;50.154;8.682;2022-08-19T15:26:27;36.10;30.80
65568;DHT22;52211;50.154;8.682;2022-08-19T15:29:00;36.00;30.70
65568;DHT22;52211;50.154;8.682;2022-08-19T15:31:28;35.80;30.60
65568;DHT22;52211;50.154;8.682;2022-08-19T15:33:58;35.70;30.70
65568;DHT22;52211;50.154;8.682;2022-08-19T15:36:26;35.50;30.10
65568;DHT22;52211;50.154;8.682;2022-08-19T15:38:56;35.30;29.80
65568;DHT22;52211;50.154;8.682;2022-08-19T15:41:28;35.10;30.00
65568;DHT22;52211;50.154;8.682;2022-08-19T15:43:57;34.90;29.80
65568;DHT22;52211;50.154;8.682;2022-08-19T15:46:28;34.70;30.00
65568;DHT22;52211;50.154;8.682;2022-08-19T15:49:00;34.70;30.20
65568;DHT22;52211;50.154;8.682;2022-08-19T15:51:31;34.60;30.00
65568;DHT22;52211;50.154;8.682;2022-08-19T15:54:08;34.60;30.30
65568;DHT22;52211;50.154;8.682;2022-08-19T15:56:40;34.70;30.20
65568;DHT22;52211;50.154;8.682;2022-08-19T15:59:28;34.70;30.50
65568;DHT22;52211;50.154;8.682;2022-08-19T16:02:17;34.90;30.60
65568;DHT22;52211;50.154;8.682;2022-08-19T16:05:07;35.10;30.40
65568;DHT22;52211;50.154;8.682;2022-08-19T16:07:59;35.20;30.10
65568;DHT22;52211;50.154;8.682;2022-08-19T16:10:28;35.40;30.20
65568;DHT22;52211;50.154;8.682;2022-08-19T16:13:01;35.50;30.00